createdAt,value
2022-09-02T00:00:25.439Z,18.10
2022-09-02T00:02:54.382Z,17.90
2022-09-02T00:05:22.553Z,17.90
2022-09-02T00:07:50.491Z,18.00
2022-09-02T00:10:18.661Z,18.10
2022-09-02T00:12:46.552Z,18.00
2022-09-02T00:15:14.590Z,18.10
2022-09-02T00:17:43.925Z,18.10
2022-09-02T00:20:12.576Z,18.00
2022-09-02T00:22:40.627Z,18.00
2022-09-02T00:25:09.742Z,17.90
2022-09-02T00:27:37.675Z,17.90
2022-09-02T00:30:07.338Z,17.90
2022-09-02T00:32:35.278Z,17.80
2022-09-02T00:35:05.859Z,17.80
2022-09-02T00:37:33.815Z,17.70
2022-09-02T00:40:03.277Z,17.70
2022-09-02T00:42:31.275Z,17.80
2022-09-02T00:44:59.424Z,17.70
2022-09-02T00:47:27.363Z,17.70
2022-09-02T00:49:55.639Z,17.60
2022-09-02T00:52:30.001Z,17.60
2022-09-02T00:55:00.551Z,17.60
2022-09-02T00:57:33.015Z,17.50
2022-09-02T01:00:10.069Z,17.40
2022-09-02T01:02:40.636Z,17.40
2022-09-02T01:05:11.931Z,17.40
2022-09-02T01:07:43.206Z,17.40
2022-09-02T01:10:14.424Z,17.50
2022-09-02T01:12:42.723Z,17.40
2022-09-02T01:15:13.275Z,17.30
2022-09-02T01:17:43.960Z,17.30
2022-09-02T01:20:15.134Z,17.20
2022-09-02T01:22:45.733Z,17.20
2022-09-02T01:25:16.881Z,17.10
2022-09-02T01:27:45.205Z,17.00
2022-09-02T01:30:15.988Z,17.00
2022-09-02T01:32:43.955Z,17.10
2022-09-02T01:39:01.658Z,16.90
2022-09-02T01:41:29.762Z,17.00
2022-09-02T01:43:57.785Z,17.00
2022-09-02T01:46:26.275Z,17.00
2022-09-02T01:48:54.297Z,16.90
2022-09-02T01:51:22.666Z,16.90
2022-09-02T01:53:50.648Z,17.00
2022-09-02T01:56:19.916Z,16.80
2022-09-02T01:58:47.894Z,16.70
2022-09-02T02:01:16.309Z,16.70
2022-09-02T02:03:44.398Z,16.70
2022-09-02T02:06:14.975Z,16.80
2022-09-02T02:08:43.574Z,16.80
2022-09-02T02:11:11.792Z,16.80
2022-09-02T02:13:41.118Z,16.80
2022-09-02T02:16:09.164Z,16.70
2022-09-02T02:18:37.649Z,16.80
2022-09-02T02:21:05.787Z,16.70
2022-09-02T02:23:34.599Z,16.60
2022-09-02T02:26:02.515Z,16.60
2022-09-02T02:28:31.012Z,16.50
2022-09-02T02:31:00.879Z,16.50
2022-09-02T02:33:30.485Z,16.50
2022-09-02T02:36:05.552Z,16.50
2022-09-02T02:38:33.559Z,16.40
2022-09-02T02:41:02.001Z,16.30
2022-09-02T02:43:29.975Z,16.30
2022-09-02T02:45:57.891Z,16.20
2022-09-02T02:48:27.331Z,16.20
2022-09-02T02:50:55.428Z,16.30
2022-09-02T02:53:23.607Z,16.30
2022-09-02T02:55:51.929Z,16.30
2022-09-02T02:58:19.873Z,16.30
2022-09-02T03:00:47.904Z,16.30
2022-09-02T03:03:19.696Z,16.30
2022-09-02T03:05:50.830Z,16.40
2022-09-02T03:08:20.988Z,16.30
2022-09-02T03:10:54.362Z,16.30
2022-09-02T03:13:23.183Z,16.30
2022-09-02T03:15:51.557Z,16.30
2022-09-02T03:18:20.062Z,16.30
2022-09-02T03:20:49.532Z,16.30
2022-09-02T03:23:18.748Z,16.20
2022-09-02T03:25:47.890Z,16.40
2022-09-02T03:28:15.905Z,16.30
2022-09-02T03:30:47.608Z,16.30
2022-09-02T03:33:16.000Z,16.20
2022-09-02T03:35:46.194Z,16.10
2022-09-02T03:38:15.550Z,16.00
2022-09-02T03:40:43.601Z,16.10
2022-09-02T03:43:11.994Z,16.10
2022-09-02T03:45:41.706Z,16.20
2022-09-02T03:48:12.412Z,16.30
2022-09-02T03:50:42.656Z,16.30
2022-09-02T03:53:23.258Z,16.20
2022-09-02T03:55:53.050Z,16.20
2022-09-02T03:58:22.886Z,16.30
2022-09-02T04:00:52.759Z,16.30
2022-09-02T04:03:21.703Z,16.30
2022-09-02T04:05:50.721Z,16.30
2022-09-02T04:08:18.948Z,16.30
2022-09-02T04:10:47.207Z,16.30
2022-09-02T04:13:16.544Z,16.40
2022-09-02T04:15:47.799Z,16.50
2022-09-02T04:19:11.388Z,16.50
2022-09-02T04:21:41.756Z,16.50
2022-09-02T04:24:11.662Z,16.50
2022-09-02T04:26:45.159Z,16.50
2022-09-02T04:29:15.058Z,16.50
2022-09-02T04:31:44.757Z,16.50
2022-09-02T04:34:12.899Z,16.50
2022-09-02T04:36:40.929Z,16.40
2022-09-02T04:39:09.719Z,16.40
2022-09-02T04:41:38.716Z,16.40
2022-09-02T04:44:07.299Z,16.40
2022-09-02T04:46:37.162Z,16.40
2022-09-02T04:49:06.204Z,16.30
2022-09-02T04:51:34.637Z,16.30
2022-09-02T04:54:02.743Z,16.30
2022-09-02T04:56:32.536Z,16.20
2022-09-02T04:59:01.175Z,16.30
2022-09-02T05:01:32.502Z,16.10
2022-09-02T05:04:02.952Z,16.30
2022-09-02T05:06:31.259Z,16.30
2022-09-02T05:09:00.695Z,16.30
2022-09-02T05:11:31.073Z,16.30
2022-09-02T05:14:01.163Z,16.30
2022-09-02T05:16:32.675Z,16.30
2022-09-02T05:19:03.344Z,16.40
2022-09-02T05:21:32.158Z,16.40
2022-09-02T05:24:02.223Z,16.40
2022-09-02T05:26:30.203Z,16.40
2022-09-02T05:28:58.111Z,16.40
2022-09-02T05:31:27.536Z,16.50
2022-09-02T05:33:55.671Z,16.50
2022-09-02T05:36:25.746Z,16.50
2022-09-02T05:38:53.683Z,16.60
2022-09-02T05:41:24.644Z,16.70
2022-09-02T05:43:53.607Z,16.70
2022-09-02T05:46:24.327Z,16.80
2022-09-02T05:49:09.574Z,16.80
2022-09-02T05:51:44.079Z,16.90
2022-09-02T05:54:13.870Z,16.90
2022-09-02T05:56:45.099Z,16.90
2022-09-02T05:59:13.773Z,17.00
2022-09-02T06:01:41.986Z,17.00
2022-09-02T06:04:10.157Z,17.00
2022-09-02T06:06:39.529Z,17.10
2022-09-02T06:09:11.583Z,17.10
2022-09-02T06:11:44.604Z,17.10
2022-09-02T06:14:13.918Z,17.20
2022-09-02T06:16:42.734Z,17.30
2022-09-02T06:19:11.899Z,17.40
2022-09-02T06:21:42.207Z,17.40
2022-09-02T06:24:13.154Z,17.40
2022-09-02T06:26:42.232Z,17.40
2022-09-02T06:29:11.396Z,17.60
2022-09-02T06:31:42.523Z,17.60
2022-09-02T06:34:13.668Z,17.70
2022-09-02T06:36:43.200Z,17.80
2022-09-02T06:39:14.533Z,17.90
2022-09-02T06:41:43.987Z,17.80
2022-09-02T06:44:15.242Z,17.80
2022-09-02T06:46:45.361Z,17.90
2022-09-02T06:49:16.202Z,18.00
2022-09-02T06:51:46.832Z,18.10
2022-09-02T06:54:17.919Z,18.00
2022-09-02T06:56:49.801Z,17.90
2022-09-02T06:59:18.471Z,18.10
2022-09-02T07:01:46.942Z,18.20
2022-09-02T07:04:33.375Z,18.30
2022-09-02T07:07:01.298Z,18.30
2022-09-02T07:09:31.245Z,18.30
2022-09-02T07:12:04.179Z,18.30
2022-09-02T07:14:33.774Z,18.20
2022-09-02T07:17:01.847Z,18.30
2022-09-02T07:19:29.864Z,18.30
2022-09-02T07:21:58.037Z,18.40
2022-09-02T07:24:26.101Z,18.50
2022-09-02T07:26:55.887Z,18.60
2022-09-02T07:29:24.129Z,18.60
2022-09-02T07:31:52.197Z,18.70
2022-09-02T07:34:20.755Z,18.60
2022-09-02T07:36:49.121Z,18.50
2022-09-02T07:39:18.422Z,18.70
2022-09-02T07:41:50.265Z,18.60
2022-09-02T07:44:21.196Z,18.70
2022-09-02T07:46:49.324Z,18.90
2022-09-02T07:49:22.034Z,18.90
2022-09-02T07:51:52.493Z,18.90
2022-09-02T07:54:23.501Z,18.80
2022-09-02T07:56:51.690Z,18.80
2022-09-02T07:59:22.382Z,18.90
2022-09-02T08:01:51.674Z,19.00
2022-09-02T08:04:22.183Z,19.00
2022-09-02T08:06:50.694Z,18.90
2022-09-02T08:09:18.738Z,19.00
2022-09-02T08:11:49.815Z,19.10
2022-09-02T08:14:22.988Z,19.10
2022-09-02T08:16:53.393Z,19.00
2022-09-02T08:19:22.473Z,19.10
2022-09-02T08:21:50.933Z,19.20
2022-09-02T08:24:18.932Z,19.30
2022-09-02T08:26:47.039Z,19.40
2022-09-02T08:29:15.524Z,19.50
2022-09-02T08:31:44.907Z,19.30
2022-09-02T08:34:12.959Z,19.30
2022-09-02T08:36:45.351Z,19.40
2022-09-02T08:42:06.287Z,19.70
2022-09-02T08:44:38.074Z,19.70
2022-09-02T08:47:14.413Z,19.90
2022-09-02T08:49:45.503Z,19.70
2022-09-02T08:52:21.680Z,20.00
2022-09-02T08:54:55.682Z,19.90
2022-09-02T08:57:27.793Z,19.90
2022-09-02T08:59:59.110Z,19.80
2022-09-02T09:02:37.369Z,19.90
2022-09-02T09:05:17.852Z,20.00
2022-09-02T09:07:59.574Z,20.30
2022-09-02T09:10:38.361Z,20.40
2022-09-02T09:13:30.575Z,20.30
2022-09-02T09:16:09.517Z,20.40
2022-09-02T09:18:41.991Z,20.50
2022-09-02T09:21:11.159Z,20.50
2022-09-02T09:23:40.777Z,20.50
2022-09-02T09:26:11.123Z,20.70
2022-09-02T09:28:44.934Z,20.60
2022-09-02T09:31:15.742Z,20.70
2022-09-02T09:33:58.681Z,20.90
2022-09-02T09:36:49.245Z,21.00
2022-09-02T09:39:23.375Z,21.10
2022-09-02T09:41:52.938Z,21.20
2022-09-02T09:44:37.428Z,21.00
2022-09-02T09:47:16.026Z,20.90
2022-09-02T09:49:48.521Z,21.10
2022-09-02T09:52:34.456Z,21.40
2022-09-02T09:55:15.534Z,21.80
2022-09-02T09:57:53.259Z,21.70
2022-09-02T10:00:26.836Z,21.70
2022-09-02T10:02:59.663Z,21.80
2022-09-02T10:05:35.515Z,21.70
2022-09-02T10:08:10.125Z,22.00
2022-09-02T10:10:57.473Z,22.20
2022-09-02T10:13:28.245Z,22.40
2022-09-02T10:16:29.408Z,23.00
2022-09-02T10:19:03.748Z,22.70
2022-09-02T10:21:51.380Z,22.30
2022-09-02T10:24:35.783Z,22.60
2022-09-02T10:27:09.053Z,23.00
2022-09-02T10:29:55.484Z,23.20
2022-09-02T10:32:43.968Z,23.20
2022-09-02T10:35:20.205Z,23.10
2022-09-02T10:38:05.588Z,23.20
2022-09-02T10:40:41.721Z,23.10
2022-09-02T10:43:19.842Z,23.10
2022-09-02T10:45:50.841Z,23.30
2022-09-02T10:48:36.108Z,23.00
2022-09-02T10:51:10.624Z,23.30
2022-09-02T10:53:49.821Z,23.20
2022-09-02T10:56:21.478Z,23.20
2022-09-02T10:58:55.539Z,23.30
2022-09-02T11:01:26.923Z,23.30
2022-09-02T11:04:09.545Z,23.60
2022-09-02T11:07:01.264Z,23.60
2022-09-02T11:09:36.943Z,23.40
2022-09-02T11:12:12.034Z,23.50
2022-09-02T11:14:51.526Z,23.80
2022-09-02T11:17:24.968Z,23.80
2022-09-02T11:20:00.813Z,24.10
2022-09-02T11:22:39.017Z,24.30
2022-09-02T11:25:14.321Z,24.40
2022-09-02T11:27:47.483Z,24.50
2022-09-02T11:30:18.434Z,24.70
2022-09-02T11:32:53.275Z,24.50
2022-09-02T11:35:26.639Z,24.90
2022-09-02T11:38:00.691Z,25.00
2022-09-02T11:40:36.291Z,25.20
2022-09-02T11:43:26.574Z,25.10
2022-09-02T11:46:08.245Z,25.10
2022-09-02T11:48:58.083Z,25.20
2022-09-02T11:51:54.616Z,25.30
2022-09-02T11:54:25.063Z,25.20
2022-09-02T11:57:00.206Z,25.40
2022-09-02T12:00:02.282Z,25.40
2022-09-02T12:02:38.479Z,25.40
2022-09-02T12:05:43.759Z,25.40
2022-09-02T12:08:15.300Z,25.30
2022-09-02T12:11:01.175Z,25.80
2022-09-02T12:13:40.972Z,25.80
2022-09-02T12:16:41.132Z,25.60
2022-09-02T12:19:27.968Z,25.30
2022-09-02T12:22:28.535Z,25.50
2022-09-02T12:24:57.622Z,25.80
2022-09-02T12:27:36.634Z,26.00
2022-09-02T12:30:09.236Z,26.00
2022-09-02T12:33:05.456Z,26.10
2022-09-02T12:35:50.085Z,25.70
2022-09-02T12:41:13.479Z,26.00
2022-09-02T12:43:54.083Z,26.00
2022-09-02T12:46:32.241Z,25.80
2022-09-02T12:49:06.727Z,25.60
2022-09-02T12:51:54.858Z,25.90
2022-09-02T12:54:28.880Z,26.00
2022-09-02T12:56:57.263Z,25.90
2022-09-02T12:59:30.859Z,26.10
2022-09-02T13:02:30.467Z,26.10
2022-09-02T13:05:16.073Z,26.10
2022-09-02T13:08:13.000Z,26.20
2022-09-02T13:10:58.221Z,25.90
2022-09-02T13:13:49.122Z,26.10
2022-09-02T13:16:22.551Z,26.30
2022-09-02T13:19:24.099Z,26.50
2022-09-02T13:22:19.965Z,26.50
2022-09-02T13:25:06.569Z,26.50
2022-09-02T13:28:17.288Z,26.40
2022-09-02T13:31:08.350Z,26.40
2022-09-02T13:33:40.592Z,26.40
2022-09-02T13:36:10.845Z,26.30
2022-09-02T13:38:40.220Z,26.60
2022-09-02T13:41:09.416Z,26.20
2022-09-02T13:43:37.682Z,25.90
2022-09-02T13:46:06.202Z,25.90
2022-09-02T13:48:35.154Z,26.10
2022-09-02T13:51:13.024Z,25.60
2022-09-02T13:53:45.637Z,26.20
2022-09-02T13:56:31.651Z,26.20
2022-09-02T13:58:59.670Z,26.30
2022-09-02T14:01:31.608Z,25.90
2022-09-02T14:06:36.209Z,26.10
2022-09-02T14:09:09.466Z,25.90
2022-09-02T14:11:42.583Z,25.90
2022-09-02T14:14:14.998Z,26.00
2022-09-02T14:16:43.006Z,26.30
2022-09-02T14:19:14.681Z,25.80
2022-09-02T14:21:47.952Z,25.60
2022-09-02T14:24:22.579Z,25.70
2022-09-02T14:26:53.987Z,25.70
2022-09-02T14:29:24.224Z,25.50
2022-09-02T14:32:13.174Z,25.70
2022-09-02T14:34:43.861Z,25.50
2022-09-02T14:37:25.910Z,25.50
2022-09-02T14:40:09.713Z,25.60
2022-09-02T14:42:48.584Z,25.70
2022-09-02T14:45:27.362Z,25.20
2022-09-02T14:47:56.118Z,25.50
2022-09-02T14:50:29.651Z,25.50
2022-09-02T14:53:04.719Z,25.50
2022-09-02T14:55:47.968Z,25.40
2022-09-02T14:58:17.148Z,25.60
2022-09-02T15:00:47.460Z,25.60
2022-09-02T15:03:17.168Z,25.50
2022-09-02T15:05:45.570Z,25.60
2022-09-02T15:08:13.949Z,25.90
2022-09-02T15:10:47.092Z,25.80
2022-09-02T15:13:22.019Z,25.70
2022-09-02T15:15:52.178Z,25.40
2022-09-02T15:18:20.316Z,25.40
2022-09-02T15:20:48.328Z,25.10
2022-09-02T15:23:16.662Z,25.30
2022-09-02T15:25:46.125Z,25.40
2022-09-02T15:28:14.546Z,25.40
2022-09-02T15:30:42.710Z,25.40
2022-09-02T15:33:16.631Z,25.20
2022-09-02T15:35:52.411Z,25.10
2022-09-02T15:38:20.599Z,25.30
2022-09-02T15:40:50.881Z,25.50
2022-09-02T15:43:21.329Z,25.30
2022-09-02T15:45:49.511Z,25.30
2022-09-02T15:48:17.588Z,25.10
2022-09-02T15:50:46.665Z,25.20
2022-09-02T15:53:15.860Z,25.20
2022-09-02T15:55:44.333Z,25.20
2022-09-02T15:58:13.736Z,25.20
2022-09-02T16:00:43.926Z,25.00
2022-09-02T16:03:13.468Z,25.20
2022-09-02T16:05:43.162Z,25.00
2022-09-02T16:08:11.691Z,25.00
2022-09-02T16:10:40.318Z,25.10
2022-09-02T16:13:08.344Z,25.00
2022-09-02T16:15:37.905Z,25.00
2022-09-02T16:18:06.143Z,25.10
2022-09-02T16:20:34.171Z,25.30
2022-09-02T16:23:03.823Z,25.20
2022-09-02T16:25:34.546Z,25.00
2022-09-02T16:28:02.836Z,25.10
2022-09-02T16:30:30.966Z,25.10
2022-09-02T16:33:01.016Z,25.10
2022-09-02T16:35:29.220Z,25.20
2022-09-02T16:37:58.118Z,25.10
2022-09-02T16:40:26.011Z,25.30
2022-09-02T16:42:53.947Z,25.30
2022-09-02T16:45:21.933Z,25.60
2022-09-02T16:47:49.950Z,25.70
2022-09-02T16:50:19.267Z,25.60
2022-09-02T16:52:47.281Z,25.50
2022-09-02T16:55:18.703Z,25.40
2022-09-02T16:57:46.667Z,25.50
2022-09-02T17:00:27.884Z,25.40
2022-09-02T17:03:03.188Z,25.40
2022-09-02T17:05:37.439Z,25.30
2022-09-02T17:08:05.843Z,25.30
2022-09-02T17:10:35.062Z,25.30
2022-09-02T17:13:03.255Z,25.20
2022-09-02T17:15:32.595Z,24.90
2022-09-02T17:18:00.790Z,24.70
2022-09-02T17:20:28.801Z,24.90
2022-09-02T17:22:58.559Z,24.80
2022-09-02T17:25:26.499Z,24.60
2022-09-02T17:28:00.376Z,24.20
2022-09-02T17:30:28.401Z,23.80
2022-09-02T17:32:58.362Z,23.60
2022-09-02T17:35:26.613Z,23.60
2022-09-02T17:37:54.470Z,23.40
2022-09-02T17:40:56.011Z,23.30
2022-09-02T17:43:24.349Z,23.20
2022-09-02T17:45:54.767Z,23.00
2022-09-02T17:48:39.038Z,23.00
2022-09-02T17:51:10.960Z,23.00
2022-09-02T17:53:39.990Z,22.90
2022-09-02T17:56:36.095Z,22.70
2022-09-02T17:59:17.755Z,22.70
2022-09-02T18:01:58.046Z,22.50
2022-09-02T18:04:36.583Z,22.50
2022-09-02T18:07:12.640Z,22.50
2022-09-02T18:09:40.644Z,22.40
2022-09-02T18:12:10.030Z,22.30
2022-09-02T18:14:43.233Z,22.10
2022-09-02T18:17:24.072Z,22.10
2022-09-02T18:19:59.362Z,22.00
2022-09-02T18:22:47.489Z,21.90
2022-09-02T18:25:29.564Z,21.80
2022-09-02T18:28:13.555Z,21.70
2022-09-02T18:30:48.970Z,21.60
2022-09-02T18:33:29.598Z,21.70
2022-09-02T18:36:05.361Z,21.60
2022-09-02T18:38:40.885Z,21.40
2022-09-02T18:41:25.533Z,21.30
2022-09-02T18:44:09.278Z,21.20
2022-09-02T18:46:47.108Z,21.20
2022-09-02T18:49:16.302Z,21.10
2022-09-02T18:51:45.691Z,20.90
2022-09-02T18:54:18.958Z,20.90
2022-09-02T18:56:53.956Z,20.90
2022-09-02T18:59:28.666Z,20.80
2022-09-02T19:02:02.226Z,20.80
2022-09-02T19:04:32.612Z,20.70
2022-09-02T19:07:14.896Z,20.70
2022-09-02T19:09:43.214Z,20.70
2022-09-02T19:12:13.081Z,20.70
2022-09-02T19:14:41.623Z,20.70
2022-09-02T19:17:12.578Z,20.70
2022-09-02T19:19:40.570Z,20.80
2022-09-02T19:22:12.486Z,20.70
2022-09-02T19:24:46.158Z,20.80
2022-09-02T19:27:18.408Z,20.80
2022-09-02T19:29:51.588Z,20.70
2022-09-02T19:32:24.735Z,20.70
2022-09-02T19:34:53.194Z,20.60
2022-09-02T19:37:23.591Z,20.60
2022-09-02T19:39:54.123Z,20.60
2022-09-02T19:42:24.830Z,20.60
2022-09-02T19:44:53.439Z,20.40
2022-09-02T19:48:05.558Z,20.50
2022-09-02T19:50:13.541Z,20.40
2022-09-02T19:52:44.278Z,20.40
2022-09-02T19:55:15.204Z,20.30
2022-09-02T19:57:45.087Z,20.40
2022-09-02T20:00:15.201Z,20.30
2022-09-02T20:02:43.324Z,20.20
2022-09-02T20:05:12.795Z,20.10
2022-09-02T20:07:41.282Z,20.20
2022-09-02T20:10:10.682Z,20.00
2022-09-02T20:12:39.320Z,20.00
2022-09-02T20:15:09.859Z,19.90
2022-09-02T20:17:37.935Z,19.90
2022-09-02T20:20:13.009Z,19.90
2022-09-02T20:22:41.141Z,19.90
2022-09-02T20:25:09.548Z,19.90
2022-09-02T20:27:55.302Z,19.90
2022-09-02T20:30:33.671Z,19.80
2022-09-02T20:33:10.847Z,19.80
2022-09-02T20:35:49.231Z,19.70
2022-09-02T20:38:37.566Z,19.80
2022-09-02T20:41:12.686Z,19.80
2022-09-02T20:44:06.649Z,19.80
2022-09-02T20:46:55.657Z,19.60
2022-09-02T20:50:09.751Z,19.50
2022-09-02T20:53:00.569Z,19.50
2022-09-02T20:55:39.805Z,19.60
2022-09-02T20:58:26.973Z,19.70
2022-09-02T21:01:11.021Z,19.60
2022-09-02T21:03:51.079Z,19.70
2022-09-02T21:06:25.095Z,19.70
2022-09-02T21:09:02.224Z,19.70
2022-09-02T21:11:38.865Z,19.70
2022-09-02T21:14:12.624Z,19.80
2022-09-02T21:16:45.606Z,19.90
2022-09-02T21:19:23.072Z,19.80
2022-09-02T21:21:56.568Z,19.80
2022-09-02T21:24:32.338Z,19.80
2022-09-02T21:27:06.261Z,19.70
2022-09-02T21:29:41.409Z,19.50
2022-09-02T21:32:14.896Z,19.60
2022-09-02T21:34:50.538Z,19.50
2022-09-02T21:37:21.238Z,19.50
2022-09-02T21:39:55.452Z,19.60
2022-09-02T21:42:32.521Z,19.50
2022-09-02T21:45:09.663Z,19.50
2022-09-02T21:47:44.380Z,19.50
2022-09-02T21:50:22.104Z,19.50
2022-09-02T21:53:01.772Z,19.50
2022-09-02T21:55:44.625Z,19.30
2022-09-02T21:58:34.252Z,19.40
2022-09-02T22:01:08.332Z,19.40
2022-09-02T22:03:42.422Z,19.30
2022-09-02T22:06:19.378Z,19.30
2022-09-02T22:08:56.153Z,19.30
2022-09-02T22:11:33.121Z,19.30
2022-09-02T22:14:09.027Z,19.30
2022-09-02T22:16:47.001Z,19.40
2022-09-02T22:19:16.677Z,19.50
2022-09-02T22:21:49.257Z,19.40
2022-09-02T22:24:19.000Z,19.30
2022-09-02T22:26:51.701Z,19.20
2022-09-02T22:29:24.979Z,19.20
2022-09-02T22:31:57.728Z,19.10
2022-09-02T22:34:28.154Z,19.00
2022-09-02T22:37:01.725Z,18.80
2022-09-02T22:39:35.657Z,18.80
2022-09-02T22:42:09.599Z,18.80
2022-09-02T22:45:08.975Z,18.80
2022-09-02T22:47:56.657Z,18.80
2022-09-02T22:50:50.739Z,18.80
2022-09-02T22:53:20.126Z,18.80
2022-09-02T22:55:59.511Z,18.70
2022-09-02T22:58:51.313Z,18.60
2022-09-02T23:01:25.808Z,18.60
2022-09-02T23:04:07.175Z,18.70
2022-09-02T23:06:35.071Z,18.50
2022-09-02T23:09:09.581Z,18.50
2022-09-02T23:11:49.357Z,18.50
2022-09-02T23:14:26.644Z,18.40
2022-09-02T23:17:20.574Z,18.40
2022-09-02T23:20:01.477Z,18.30
2022-09-02T23:22:40.960Z,18.30
2022-09-02T23:25:36.304Z,18.40
2022-09-02T23:28:15.135Z,18.40
2022-09-02T23:31:01.077Z,18.40
2022-09-02T23:33:46.027Z,18.30
2022-09-02T23:36:21.502Z,18.30
2022-09-02T23:39:10.099Z,18.30
2022-09-02T23:41:39.682Z,18.20
2022-09-02T23:44:08.627Z,18.20
2022-09-02T23:46:51.880Z,18.10
2022-09-02T23:49:31.229Z,18.20
2022-09-02T23:52:08.980Z,18.20
2022-09-02T23:54:52.176Z,18.10
2022-09-02T23:57:35.216Z,18.10
